Virtual United States Air Force

 METAR AND TAF INFORMATION
METAR FOR KBAD
ADDS - METARS form results

(0618 UTC 18 January 2020)
Data provider http://aviationweather.gov/metar/data/
 
METAR text: KBAD 180613Z AUTO 15011KT 10SM -RA BKN019 OVC055 15/15 A3010 RMK AO2 RAE0559RAB03 PRESFR SLP196 $
Conditions at: KBAD (BARKSDALE AFB , LA, US) observed 0613 UTC 18 January 2020
Temperature: 15.0°C (59°F)
Dewpoint: 15.0°C (59°F) [RH = 100%]
Pressure (altimeter): 30.10 inches Hg (1019.4 mb)
[Sea-level pressure: 1019.6 mb]
Winds: from the SSE (150 degrees) at 13 MPH (11 knots; 5.7 m/s)
Visibility: 10 or more miles (16+ km)
Ceiling: 1900 feet AGL
Clouds: broken clouds at 1900 feet AGL
overcast cloud deck at 5500 feet AGL
Weather: -RA  (light rain)
SOME DATA ABOVE MAY BE INACCURATE!!!
"$" is an indication the sensor requires maintenance

METAR text: KBAD 180603Z AUTO 16010KT 10SM -RA BKN020 OVC028 15/15 A3012 RMK AO2 RAE0559RAB03 SLP202 $
Conditions at: KBAD (BARKSDALE AFB , LA, US) observed 0603 UTC 18 January 2020
Temperature: 15.0°C (59°F)
Dewpoint: 15.0°C (59°F) [RH = 100%]
Pressure (altimeter): 30.12 inches Hg (1020.1 mb)
[Sea-level pressure: 1020.2 mb]
Winds: from the SSE (160 degrees) at 12 MPH (10 knots; 5.1 m/s)
Visibility: 10 or more miles (16+ km)
Ceiling: 2000 feet AGL
Clouds: broken clouds at 2000 feet AGL
overcast cloud deck at 2800 feet AGL
Weather: -RA  (light rain)
SOME DATA ABOVE MAY BE INACCURATE!!!
"$" is an indication the sensor requires maintenance

METAR text: KBAD 180559Z AUTO 16010KT 10SM BKN020 BKN028 OVC065 15/15 A3012 RMK AO2 RAE59 SLP202 $
Conditions at: KBAD (BARKSDALE AFB , LA, US) observed 0559 UTC 18 January 2020
Temperature: 15.0°C (59°F)
Dewpoint: 15.0°C (59°F) [RH = 100%]
Pressure (altimeter): 30.12 inches Hg (1020.1 mb)
[Sea-level pressure: 1020.2 mb]
Winds: from the SSE (160 degrees) at 12 MPH (10 knots; 5.1 m/s)
Visibility: 10 or more miles (16+ km)
Ceiling: 2000 feet AGL
Clouds: broken clouds at 2000 feet AGL
broken clouds at 2800 feet AGL
overcast cloud deck at 6500 feet AGL
Weather:
SOME DATA ABOVE MAY BE INACCURATE!!!
"$" is an indication the sensor requires maintenance

METAR text: KBAD 180556Z AUTO 17011KT 10SM -RA BKN020 BKN028 OVC065 15/15 A3012 RMK AO2 RAB07E41RAB45 SLP202 P0000 60000 T01500148 10154 20125 401540079 55012 $
Conditions at: KBAD (BARKSDALE AFB , LA, US) observed 0556 UTC 18 January 2020
Temperature: 15.0°C (59°F)
Dewpoint: 14.8°C (59°F) [RH = 99%]
Pressure (altimeter): 30.12 inches Hg (1020.1 mb)
[Sea-level pressure: 1020.2 mb]
Winds: from the S (170 degrees) at 13 MPH (11 knots; 5.7 m/s)
Visibility: 10 or more miles (16+ km)
Ceiling: 2000 feet AGL
Clouds: broken clouds at 2000 feet AGL
broken clouds at 2800 feet AGL
overcast cloud deck at 6500 feet AGL
Weather: -RA  (light rain)
SOME DATA ABOVE MAY BE INACCURATE!!!
"$" is an indication the sensor requires maintenance

METAR text: KBAD 180545Z AUTO 18011KT 10SM -RA BKN021 OVC027 15/15 A3013 RMK AO2 RAB07E41RAB45 CIG 021V027 SLP206 $
Conditions at: KBAD (BARKSDALE AFB , LA, US) observed 0545 UTC 18 January 2020
Temperature: 15.0°C (59°F)
Dewpoint: 15.0°C (59°F) [RH = 100%]
Pressure (altimeter): 30.13 inches Hg (1020.4 mb)
[Sea-level pressure: 1020.6 mb]
Winds: from the S (180 degrees) at 13 MPH (11 knots; 5.7 m/s)
Visibility: 10 or more miles (16+ km)
Ceiling: 2100 feet AGL
Clouds: broken clouds at 2100 feet AGL
overcast cloud deck at 2700 feet AGL
Weather: -RA  (light rain)
SOME DATA ABOVE MAY BE INACCURATE!!!
"$" is an indication the sensor requires maintenance

METAR text: KBAD 180541Z AUTO 17010KT 10SM BKN021 BKN028 15/15 A3013 RMK AO2 RAB07E41 CIG 020V027 SLP206 $
Conditions at: KBAD (BARKSDALE AFB , LA, US) observed 0541 UTC 18 January 2020
Temperature: 15.0°C (59°F)
Dewpoint: 15.0°C (59°F) [RH = 100%]
Pressure (altimeter): 30.13 inches Hg (1020.4 mb)
[Sea-level pressure: 1020.6 mb]
Winds: from the S (170 degrees) at 12 MPH (10 knots; 5.1 m/s)
Visibility: 10 or more miles (16+ km)
Ceiling: 2100 feet AGL
Clouds: broken clouds at 2100 feet AGL
broken clouds at 2800 feet AGL
Weather:
SOME DATA ABOVE MAY BE INACCURATE!!!
"$" is an indication the sensor requires maintenance

METAR text: KBAD 180527Z AUTO 17010KT 10SM -RA BKN020 OVC100 15/14 A3012 RMK AO2 RAB07 CIG 020V100 SLP202 $
Conditions at: KBAD (BARKSDALE AFB , LA, US) observed 0527 UTC 18 January 2020
Temperature: 15.0°C (59°F)
Dewpoint: 14.0°C (57°F) [RH = 94%]
Pressure (altimeter): 30.12 inches Hg (1020.1 mb)
[Sea-level pressure: 1020.2 mb]
Winds: from the S (170 degrees) at 12 MPH (10 knots; 5.1 m/s)
Visibility: 10 or more miles (16+ km)
Ceiling: 2000 feet AGL
Clouds: broken clouds at 2000 feet AGL
overcast cloud deck at 10000 feet AGL
Weather: -RA  (light rain)
SOME DATA ABOVE MAY BE INACCURATE!!!
"$" is an indication the sensor requires maintenance

Forecast for: AMD
Text: TAF AMD KBAD 180420Z 1804/1908 16005KT 9999 VCSH BKN015 BKN150 QNH3014INS
Forecast period: 0400 to 0600 UTC 18 January 2020
Forecast type: FROM: standard forecast or significant change
Winds: from the SSE (160 degrees) at 6 MPH (5 knots; 2.6 m/s)
Visibility: 6 or more miles 10+ km)
Ceiling: 1500 feet AGL
Clouds: broken clouds at 1500 feet AGL
broken clouds at 15000 feet AGL
Weather: VCSH  (showers in vicinity)
Text: BECMG 1806/1807 20010KT 9999 -SHRA OVC007 QNH3010INS
Forecast period: 0600 to 1600 UTC 18 January 2020
Forecast type: BECOMING: Conditions expected to become as follows by 0700 UTC 18 January 2020
Winds: from the SSW (200 degrees) at 12 MPH (10 knots; 5.1 m/s)
Visibility: 6 or more miles 10+ km)
Ceiling: 700 feet AGL
Clouds: overcast cloud deck at 700 feet AGL
Weather: -SHRA  (light rain showers)
Text: BECMG 1816/1817 02015G20KT 9999 NSW BKN020 BKN250 QNH3015INS
Forecast period: 1600 UTC 18 January 2020 to 0000 UTC 19 January 2020
Forecast type: BECOMING: Conditions expected to become as follows by 1700 UTC 18 January 2020
Winds: from the NNE (20 degrees) at 17 MPH (15 knots; 7.7 m/s)
gusting to 23 MPH (20 knots; 10.3 m/s)
Visibility: 6 or more miles 10+ km)
Ceiling: 2000 feet AGL
Clouds: broken clouds at 2000 feet AGL
broken clouds at 25000 feet AGL
Weather: NSW  (no significant weather)
Text: BECMG 1900/1901 36010KT 9999 SKC QNH3030INS TX15/1806Z TN08/1902Z
Forecast period: 0000 to 0800 UTC 19 January 2020
Forecast type: BECOMING: Conditions expected to become as follows by 0100 UTC 19 January 2020
Winds: from the N (360 degrees) at 12 MPH (10 knots; 5.1 m/s)
Visibility: 6 or more miles 10+ km)
Clouds: clear skies
Weather: NSW  (no significant weather)

 AIRPORT MAP

 RUNWAY INFORMATION
Runway 15 Runway length 11756 ft Runway width 300 ft
Runway elevation 164 ft Runway displaced threshold 0 ft Runway heading 151
Runway 33 Runway length 11756 ft Runway width 300 ft
Runway elevation 162 ft Runway displaced threshold 0 ft Runway heading 331

 AIRPORT FREQUENCIES
Type A/D Name SHREVEPORT Frequency 119.9 MHZ
Type ATIS Name ATIS Frequency 37.58 MHZ
Type GND Name GND Frequency 121.8 MHZ
Type PMSV Name PMSV METRO Frequency 37.362 MHZ
Type POST Name COMD POST Frequency 31.1 MHZ
Type PTD Name PTD Frequency 37.22 MHZ
Type TWR Name TWR Frequency 128.25 MHZ

 AIRPORT NEAR NAVIGATION AIDS


Neither the Department of the Air Force, nor any other component of the Department of Defense or Federal Government has approved, endorsed, or authorized this promotion, activity, or organization. Virtual United States Air Force organization is in no way affiliated with the Department of Defense, Department of the Air Force, or any other federal or government entity. Virtual United States Air Force is a group of flight simulation enthusiasts with the common interest of promoting enjoyment and cameraderie through the simulation of military operations and procedures utilizing several flight simulation platforms.

Copyright © vUSAF, LLC // 2018 All Rights Reserved